LSZR/ACH METAR and TAF weather

Enter ICAO airport designator
Station Type Date Time Source
LSZR METAR 2019/10/19 06:50 UTC NOAA

LSZR 190650Z 10007KT 9999 FEW030 13/10 Q1010 NOSIG RMK B


Station Type Date Time Source
LSZR Decoded METAR 2019/10/19 06:50 UTC NOAA

Saint Gallen-Altenrhein, Switzerland (LSZR) 47-29-06N 009-33-43E
Oct 19, 2019 - 02:50 AM EDT / 2019.10.19 0650 UTC
Wind: from the E (100 degrees) at 8 MPH (7 KT):0
Visibility: greater than 7 mile(s):0
Sky conditions: mostly clear
Temperature: 55 F (13 C)
Dew Point: 50 F (10 C)
Relative Humidity: 81%
Pressure (altimeter): 29.83 in. Hg (1010 hPa)
ob: LSZR 190650Z 10007KT 9999 FEW030 13/10 Q1010 NOSIG RMK B
cycle: 7

Station Type Date Time Source
LSZR TAF 2014/12/22 20:03 UTC NOAA

TAF
AMD LSZR 222054Z 2220/2224 CNL

Example: see airport list